Time;durP1;ratioP1;P1;durP2;ratioP2;P2;SDS_P1;SDS_P2;PMS_P1;PMS_P2;Temp;Humidity;BMP_temperature;BMP_pressure;BME280_temperature;BME280_humidity;BME280_pressure;Samples;Min_cycle;Max_cycle;Signal;HPM_P1;HPM_P2
2022/03/17 00:00:18;;;;;;;1.83;1.40;;;22.50;31.60;;;;;;4939294;29;20413;-71
2022/03/17 00:02:43;;;;;;;2.10;1.52;;;22.60;31.50;;;;;;4956408;29;20405;-71
2022/03/17 00:05:11;;;;;;;2.00;1.50;;;22.50;32.10;;;;;;4956358;29;20406;-71
2022/03/17 00:07:41;;;;;;;1.90;1.50;;;22.50;31.50;;;;;;4956291;29;20444;-71
2022/03/17 00:10:10;;;;;;;2.20;1.50;;;22.50;31.40;;;;;;4955757;29;20955;-71
2022/03/17 00:12:35;;;;;;;1.98;1.60;;;22.50;31.50;;;;;;4956283;29;20406;-71
2022/03/17 00:15:04;;;;;;;1.88;1.50;;;22.50;32.00;;;;;;4956125;29;20401;-71
2022/03/17 00:17:30;;;;;;;1.97;1.40;;;22.50;31.40;;;;;;4956179;29;20409;-72
2022/03/17 00:19:56;;;;;;;1.60;1.38;;;22.50;31.40;;;;;;4955497;29;20401;-72
2022/03/17 00:22:22;;;;;;;1.85;1.38;;;22.50;31.30;;;;;;4956048;29;20390;-72
2022/03/17 00:24:48;;;;;;;2.00;1.45;;;22.50;31.30;;;;;;4955861;29;20408;-72
2022/03/17 00:27:14;;;;;;;1.75;1.48;;;22.50;31.30;;;;;;4955976;29;20853;-72
2022/03/17 00:29:40;;;;;;;1.63;1.40;;;22.50;31.30;;;;;;4955958;29;20402;-72
2022/03/17 00:32:07;;;;;;;1.63;1.20;;;22.50;31.20;;;;;;4955334;29;20994;-71
2022/03/17 00:35:35;;;;;;;1.75;1.38;;;22.50;31.30;;;;;;4955736;29;20425;-72
2022/03/17 00:37:20;;;;;;;2.00;1.48;;;22.50;31.20;;;;;;4955493;28;20394;-71
2022/03/17 00:39:45;;;;;;;1.80;1.35;;;22.50;31.20;;;;;;4955757;29;20409;-71
2022/03/17 00:42:11;;;;;;;2.10;1.53;;;22.50;31.20;;;;;;4954897;29;21022;-72
2022/03/17 00:44:37;;;;;;;1.80;1.50;;;22.50;31.20;;;;;;4955300;29;20430;-72
2022/03/17 00:47:03;;;;;;;1.77;1.30;;;22.50;31.20;;;;;;4955466;29;20402;-72
2022/03/17 00:49:29;;;;;;;1.92;1.42;;;22.40;31.10;;;;;;4955612;29;20524;-71
2022/03/17 00:51:54;;;;;;;2.03;1.40;;;22.50;31.20;;;;;;4955355;29;20481;-71
2022/03/17 00:54:20;;;;;;;2.33;1.20;;;22.50;31.10;;;;;;4955504;29;20405;-72
2022/03/17 00:56:45;;;;;;;1.73;1.40;;;22.50;31.00;;;;;;4955290;29;20424;-71
2022/03/17 00:59:12;;;;;;;1.80;1.35;;;22.50;31.00;;;;;;4955478;29;20471;-71
2022/03/17 01:01:38;;;;;;;1.90;1.40;;;22.50;31.00;;;;;;4955427;29;20497;-71
2022/03/17 01:04:03;;;;;;;1.80;1.60;;;22.50;31.00;;;;;;4954818;29;20485;-72
2022/03/17 01:06:29;;;;;;;2.17;1.33;;;22.50;31.10;;;;;;4955285;29;20752;-71
2022/03/17 01:08:55;;;;;;;1.50;1.30;;;22.50;31.00;;;;;;4937357;29;20406;-72
2022/03/17 01:11:20;;;;;;;1.63;1.53;;;22.50;31.00;;;;;;4955201;29;20406;-71
2022/03/17 01:13:46;;;;;;;1.77;1.35;;;22.50;31.00;;;;;;4955085;29;20421;-71
2022/03/17 01:16:12;;;;;;;2.00;1.50;;;22.50;30.90;;;;;;4954595;29;20809;-71
2022/03/17 01:18:37;;;;;;;1.88;1.33;;;22.50;30.80;;;;;;4954825;29;20433;-71
2022/03/17 01:21:03;;;;;;;1.90;1.30;;;22.50;30.90;;;;;;4954950;29;20506;-72
2022/03/17 01:23:28;;;;;;;1.80;1.40;;;22.40;30.90;;;;;;4955000;29;20412;-71
2022/03/17 01:25:54;;;;;;;1.80;1.42;;;22.40;30.90;;;;;;4954521;29;20398;-72
2022/03/17 01:28:20;;;;;;;1.48;1.20;;;22.40;30.80;;;;;;4954706;29;20405;-72
2022/03/17 01:30:45;;;;;;;1.87;1.40;;;22.40;30.90;;;;;;4954723;29;20519;-71
2022/03/17 01:33:11;;;;;;;1.90;1.50;;;22.40;30.90;;;;;;4954764;29;20409;-71
2022/03/17 01:35:37;;;;;;;1.70;1.30;;;22.40;31.50;;;;;;4954759;29;20468;-71
2022/03/17 01:38:03;;;;;;;1.80;1.30;;;22.40;30.90;;;;;;4936951;29;21017;-72
2022/03/17 01:40:29;;;;;;;1.58;1.20;;;22.40;30.80;;;;;;4937366;29;20434;-71
2022/03/17 01:42:55;;;;;;;1.70;1.30;;;22.40;30.70;;;;;;4953923;29;20472;-71
2022/03/17 01:45:20;;;;;;;1.98;1.48;;;22.40;30.60;;;;;;4954278;29;20397;-71
2022/03/17 01:47:46;;;;;;;1.65;1.20;;;22.40;30.60;;;;;;4954545;29;20406;-72
2022/03/17 01:50:16;;;;;;;1.50;1.20;;;22.40;30.70;;;;;;4954066;29;20402;-71
2022/03/17 01:52:42;;;;;;;1.70;1.30;;;22.40;30.60;;;;;;4954359;29;20906;-71
2022/03/17 01:55:10;;;;;;;1.42;1.20;;;22.40;30.60;;;;;;4954394;29;20402;-71
2022/03/17 01:57:38;;;;;;;1.60;1.30;;;22.40;30.60;;;;;;4954117;29;20864;-71
2022/03/17 02:00:06;;;;;;;2.05;1.40;;;22.50;30.70;;;;;;4953194;29;20404;-71
2022/03/17 02:02:32;;;;;;;1.40;1.20;;;22.40;30.70;;;;;;4954150;29;20904;-71
2022/03/17 02:04:58;;;;;;;2.13;1.40;;;22.40;30.70;;;;;;4936770;29;20449;-71
2022/03/17 02:07:23;;;;;;;2.05;1.40;;;22.40;30.60;;;;;;4936936;29;20888;-71
2022/03/17 02:09:49;;;;;;;1.40;1.27;;;22.40;30.60;;;;;;4936927;29;20492;-71
2022/03/17 02:15:04;;;;;;;1.70;1.30;;;22.40;30.60;;;;;;4954039;29;20413;-71
2022/03/17 02:17:30;;;;;;;1.60;1.30;;;22.40;30.60;;;;;;4936607;29;20410;-71
2022/03/17 02:19:58;;;;;;;1.40;1.00;;;22.40;30.60;;;;;;4953289;28;20416;-72
2022/03/17 02:22:25;;;;;;;1.40;1.10;;;22.40;30.60;;;;;;4953996;29;20402;-71
2022/03/17 02:27:45;;;;;;;1.55;1.30;;;22.30;30.50;;;;;;4954551;29;20460;-71
2022/03/17 02:30:12;;;;;;;1.75;1.40;;;22.40;30.60;;;;;;4953423;29;20402;-71
2022/03/17 02:32:38;;;;;;;1.65;1.20;;;22.40;30.50;;;;;;4953786;29;20457;-71
2022/03/17 02:35:10;;;;;;;1.50;1.30;;;22.40;30.50;;;;;;4936433;29;20409;-71
2022/03/17 02:37:36;;;;;;;1.80;1.17;;;22.30;30.50;;;;;;4953632;29;20445;-71
2022/03/17 02:40:04;;;;;;;1.58;1.23;;;22.40;30.60;;;;;;4953181;29;20402;-71
2022/03/17 02:42:30;;;;;;;1.52;1.27;;;22.40;30.50;;;;;;4936473;29;20430;-71
2022/03/17 02:44:59;;;;;;;1.60;1.30;;;22.30;30.50;;;;;;4953545;29;20927;-71
2022/03/17 02:47:26;;;;;;;1.65;1.20;;;22.30;30.50;;;;;;4953485;29;20409;-71
2022/03/17 02:49:55;;;;;;;2.13;1.40;;;22.30;31.10;;;;;;4953478;29;20484;-71
2022/03/17 02:52:26;;;;;;;1.50;1.17;;;22.30;30.50;;;;;;4953310;29;20958;-71
2022/03/17 02:54:53;;;;;;;1.90;1.20;;;22.30;30.40;;;;;;4953404;29;20398;-71
2022/03/17 02:57:20;;;;;;;1.67;1.10;;;22.30;30.30;;;;;;4953413;29;20398;-71
2022/03/17 02:59:48;;;;;;;1.67;1.40;;;22.30;30.30;;;;;;4936650;29;20406;-71
2022/03/17 03:02:18;;;;;;;1.70;1.10;;;22.40;30.30;;;;;;4952973;29;20427;-71
2022/03/17 03:04:43;;;;;;;1.85;1.05;;;22.30;30.30;;;;;;4953375;29;20771;-71
2022/03/17 03:07:09;;;;;;;1.53;1.10;;;22.30;30.30;;;;;;4953067;29;20394;-71
2022/03/17 03:09:35;;;;;;;1.27;1.00;;;22.30;30.20;;;;;;4953387;29;20916;-71
2022/03/17 03:12:01;;;;;;;1.65;1.02;;;22.30;30.30;;;;;;4952945;29;20390;-71
2022/03/17 03:14:28;;;;;;;1.50;1.10;;;22.30;30.30;;;;;;4935830;29;20404;-71
2022/03/17 03:16:54;;;;;;;1.40;1.02;;;22.30;30.30;;;;;;4953253;29;20979;-71
2022/03/17 03:19:19;;;;;;;2.10;1.17;;;22.30;30.30;;;;;;4953220;29;20504;-71
2022/03/17 03:21:45;;;;;;;1.40;1.10;;;22.30;30.30;;;;;;4953165;29;20869;-71
2022/03/17 03:24:12;;;;;;;1.30;1.10;;;22.30;30.40;;;;;;4935531;29;20405;-71
2022/03/17 03:26:38;;;;;;;1.63;1.20;;;22.30;30.40;;;;;;4953268;29;20458;-71
2022/03/17 03:29:06;;;;;;;1.52;1.25;;;22.30;30.50;;;;;;4952894;29;20398;-71
2022/03/17 03:31:34;;;;;;;1.17;1.00;;;22.30;30.40;;;;;;4953889;28;20398;-71
2022/03/17 03:34:00;;;;;;;1.30;1.00;;;22.30;30.40;;;;;;4956755;29;20745;-71
2022/03/17 03:39:10;;;;;;;1.40;1.10;;;22.30;30.30;;;;;;4956852;29;21112;-71
2022/03/17 03:41:36;;;;;;;1.73;1.20;;;22.30;30.30;;;;;;4956769;29;20492;-71
2022/03/17 03:44:02;;;;;;;1.33;1.15;;;22.30;30.30;;;;;;4956052;29;20461;-71
2022/03/17 03:46:29;;;;;;;1.63;1.10;;;22.20;30.20;;;;;;4956547;29;20389;-71
2022/03/17 03:48:54;;;;;;;1.40;1.10;;;22.20;30.30;;;;;;4939190;29;20453;-71
2022/03/17 03:51:20;;;;;;;1.50;1.20;;;22.20;30.20;;;;;;4939469;29;20394;-71
2022/03/17 03:56:31;;;;;;;1.38;1.20;;;22.20;30.20;;;;;;4956849;29;20376;-71
2022/03/17 03:58:59;;;;;;;1.67;1.35;;;22.20;30.20;;;;;;4956029;29;20426;-71
2022/03/17 04:01:25;;;;;;;1.45;1.20;;;22.20;30.20;;;;;;4956128;29;20393;-71
2022/03/17 04:03:52;;;;;;;2.20;1.50;;;22.20;30.20;;;;;;4939169;29;20464;-72
2022/03/17 04:06:18;;;;;;;2.00;1.10;;;22.20;30.20;;;;;;4956003;29;20401;-72
2022/03/17 04:08:43;;;;;;;1.55;1.10;;;22.20;30.60;;;;;;4956321;29;20409;-73
2022/03/17 04:11:09;;;;;;;3.20;1.03;;;22.20;31.10;;;;;;4956327;29;20390;-72
2022/03/17 04:13:35;;;;;;;2.30;1.20;;;22.20;31.30;;;;;;4956739;29;20805;-71
2022/03/17 04:16:01;;;;;;;2.25;1.30;;;22.30;31.50;;;;;;4938573;29;20817;-70
2022/03/17 04:18:26;;;;;;;1.90;1.10;;;22.40;31.70;;;;;;4955834;29;20457;-70
2022/03/17 04:20:52;;;;;;;1.70;1.17;;;22.40;31.90;;;;;;4956013;29;20899;-70
2022/03/17 04:23:18;;;;;;;2.67;1.20;;;22.40;33.30;;;;;;4939033;29;20394;-71
2022/03/17 04:25:43;;;;;;;5.50;1.20;;;22.40;32.70;;;;;;4955832;29;20840;-70
2022/03/17 04:28:09;;;;;;;2.80;1.13;;;22.40;33.00;;;;;;4955538;29;20433;-71
2022/03/17 04:30:36;;;;;;;2.53;1.40;;;22.40;33.70;;;;;;4956302;29;20398;-71
2022/03/17 04:33:02;;;;;;;1.75;1.20;;;22.40;32.50;;;;;;4939728;29;20406;-71
2022/03/17 04:35:27;;;;;;;2.80;1.40;;;22.30;32.30;;;;;;4939627;29;20759;-72
2022/03/17 04:37:53;;;;;;;3.45;1.25;;;22.30;32.40;;;;;;4955623;29;20425;-73
2022/03/17 04:40:19;;;;;;;4.10;1.20;;;22.30;32.40;;;;;;4955355;29;20437;-73
2022/03/17 04:42:46;;;;;;;4.57;1.10;;;22.40;33.10;;;;;;4958258;28;20889;-72
2022/03/17 04:45:11;;;;;;;3.00;1.00;;;22.40;33.10;;;;;;4941009;28;20489;-70
2022/03/17 04:47:37;;;;;;;4.10;1.10;;;22.40;32.80;;;;;;4961992;28;20509;-71
2022/03/17 04:50:03;;;;;;;3.03;1.00;;;22.30;32.10;;;;;;4949654;28;20404;-71
2022/03/17 04:55:13;;;;;;;1.60;1.00;;;22.30;31.70;;;;;;4956398;28;20780;-71
2022/03/17 04:57:39;;;;;;;3.13;1.20;;;22.30;32.50;;;;;;4938260;29;20402;-71
2022/03/17 05:00:06;;;;;;;1.50;1.00;;;22.30;32.40;;;;;;4954974;29;20401;-72
2022/03/17 05:02:32;;;;;;;2.60;1.00;;;22.30;33.30;;;;;;4955120;29;20425;-71
2022/03/17 05:04:58;;;;;;;2.47;1.20;;;22.30;33.90;;;;;;4955168;29;20510;-71
2022/03/17 05:07:24;;;;;;;4.07;1.00;;;22.40;33.70;;;;;;4939772;28;20430;-71
2022/03/17 05:09:49;;;;;;;6.22;1.20;;;22.40;33.40;;;;;;4960664;28;20804;-71
2022/03/17 05:12:16;;;;;;;4.17;1.03;;;22.50;33.50;;;;;;4954618;29;20470;-71
2022/03/17 05:14:41;;;;;;;2.38;1.00;;;22.50;33.00;;;;;;4954974;29;20492;-71
2022/03/17 05:17:07;;;;;;;2.83;1.05;;;22.50;32.90;;;;;;4955060;29;20545;-72
2022/03/17 05:19:34;;;;;;;2.80;1.20;;;22.50;33.00;;;;;;4955049;29;20525;-73
2022/03/17 05:21:59;;;;;;;2.90;1.13;;;22.60;32.90;;;;;;4954744;29;20405;-71
2022/03/17 05:24:25;;;;;;;2.93;1.23;;;22.50;32.50;;;;;;4953021;28;20406;-71
2022/03/17 05:26:50;;;;;;;3.90;1.13;;;22.50;32.50;;;;;;4954660;29;20409;-70
2022/03/17 05:29:16;;;;;;;6.00;1.30;;;22.40;32.20;;;;;;4954849;29;20390;-73
2022/03/17 05:31:42;;;;;;;4.10;1.60;;;22.40;32.20;;;;;;4953471;29;20881;-70
2022/03/17 05:34:08;;;;;;;3.85;1.50;;;22.50;32.50;;;;;;4954269;29;20489;-73
2022/03/17 05:36:33;;;;;;;5.65;1.40;;;22.50;33.00;;;;;;4954466;29;20477;-71
2022/03/17 05:38:59;;;;;;;5.60;1.90;;;22.50;33.90;;;;;;4954277;29;20430;-72
2022/03/17 05:41:25;;;;;;;9.70;1.60;;;22.60;34.50;;;;;;4954547;29;20394;-72
2022/03/17 05:43:50;;;;;;;8.95;1.70;;;22.60;34.30;;;;;;4937168;29;20414;-72
2022/03/17 05:46:16;;;;;;;2.95;1.63;;;22.70;34.50;;;;;;4936137;29;20414;-71
2022/03/17 05:48:42;;;;;;;6.60;1.60;;;22.70;34.80;;;;;;4953770;29;20398;-71
2022/03/17 05:51:07;;;;;;;4.95;1.55;;;22.80;34.40;;;;;;4936580;29;20453;-71
2022/03/17 05:53:33;;;;;;;4.77;1.70;;;22.70;34.20;;;;;;4953655;29;20410;-72
2022/03/17 05:55:59;;;;;;;3.72;1.60;;;22.80;34.40;;;;;;4933073;28;20403;-72
2022/03/17 05:58:25;;;;;;;5.63;1.70;;;22.80;34.40;;;;;;4967104;28;20443;-72
2022/03/17 06:00:51;;;;;;;6.00;1.63;;;22.80;34.40;;;;;;4955015;28;20879;-71
2022/03/17 06:03:17;;;;;;;7.50;1.75;;;22.90;34.50;;;;;;4955323;28;20408;-72
2022/03/17 06:05:43;;;;;;;5.28;1.65;;;22.80;34.50;;;;;;4955546;28;20732;-73
2022/03/17 06:08:09;;;;;;;5.75;1.60;;;22.80;34.20;;;;;;4955378;28;21036;-71
2022/03/17 06:10:35;;;;;;;3.60;1.40;;;22.80;34.00;;;;;;4972366;28;20426;-72
2022/03/17 06:13:03;;;;;;;3.60;1.40;;;22.80;34.00;;;;;;4961832;28;20454;-71
2022/03/17 06:15:29;;;;;;;3.65;1.40;;;22.70;34.10;;;;;;4945872;28;20396;-72
2022/03/17 06:17:57;;;;;;;3.65;1.45;;;22.70;33.60;;;;;;4935922;29;20497;-72
2022/03/17 06:20:28;;;;;;;4.53;1.30;;;22.70;33.30;;;;;;4952820;29;20410;-73
2022/03/17 06:22:56;;;;;;;3.88;1.40;;;22.70;33.00;;;;;;4941629;28;20895;-72
2022/03/17 06:25:24;;;;;;;5.07;1.58;;;22.60;33.40;;;;;;4965243;28;20420;-72
2022/03/17 06:27:50;;;;;;;3.05;1.40;;;22.70;33.20;;;;;;4948795;28;20408;-75
2022/03/17 06:30:18;;;;;;;3.83;1.60;;;22.70;33.20;;;;;;4946127;28;20402;-73
2022/03/17 06:32:44;;;;;;;3.80;1.60;;;22.60;32.60;;;;;;4939521;28;20477;-72
2022/03/17 06:35:15;;;;;;;4.20;1.65;;;22.60;32.50;;;;;;4949625;28;20443;-72
2022/03/17 06:37:41;;;;;;;3.85;1.65;;;22.60;32.30;;;;;;4944641;28;20481;-72
2022/03/17 06:40:07;;;;;;;3.33;1.50;;;22.60;32.30;;;;;;4947538;28;20440;-73
2022/03/17 06:42:33;;;;;;;3.10;1.53;;;22.60;32.10;;;;;;4938759;29;20450;-72
2022/03/17 06:44:59;;;;;;;2.93;1.57;;;22.60;32.20;;;;;;4937314;28;20398;-72
2022/03/17 06:47:25;;;;;;;3.17;1.40;;;22.60;32.10;;;;;;4965530;28;20403;-72
2022/03/17 06:49:51;;;;;;;2.50;1.60;;;22.60;32.10;;;;;;4972250;28;20483;-72
2022/03/17 06:52:17;;;;;;;2.38;1.42;;;22.60;32.70;;;;;;4968476;28;20526;-74
2022/03/17 06:54:43;;;;;;;4.40;1.42;;;22.60;31.90;;;;;;4951925;28;20872;-73
2022/03/17 06:57:09;;;;;;;3.63;1.50;;;22.60;32.50;;;;;;4926195;28;20410;-72
2022/03/17 06:59:35;;;;;;;5.68;1.70;;;22.50;32.50;;;;;;4932402;29;20953;-72
2022/03/17 07:02:00;;;;;;;2.70;1.60;;;22.50;32.20;;;;;;4932788;29;20398;-71
2022/03/17 07:04:26;;;;;;;3.08;1.50;;;22.50;32.30;;;;;;4959387;28;20437;-71
2022/03/17 07:06:51;;;;;;;3.77;2.03;;;22.50;32.50;;;;;;4975994;28;20415;-71
2022/03/17 07:09:17;;;;;;;4.13;1.77;;;22.50;32.30;;;;;;4961101;28;20393;-71
2022/03/17 07:11:44;;;;;;;4.53;1.90;;;22.50;32.20;;;;;;4961322;28;20458;-71
2022/03/17 07:14:10;;;;;;;2.42;1.30;;;22.50;31.90;;;;;;4978333;28;20897;-71
2022/03/17 07:16:36;;;;;;;4.57;1.60;;;22.50;31.90;;;;;;4978108;28;20395;-71
2022/03/17 07:19:02;;;;;;;2.50;1.60;;;22.50;32.00;;;;;;4947907;28;20425;-71
2022/03/17 07:21:28;;;;;;;4.43;2.15;;;22.50;31.80;;;;;;4959023;29;20935;-71
2022/03/17 07:23:54;;;;;;;5.80;2.20;;;22.60;31.90;;;;;;4958907;28;20438;-71
2022/03/17 07:26:20;;;;;;;5.78;2.80;;;22.60;31.80;;;;;;4958512;28;20453;-71
2022/03/17 07:28:45;;;;;;;6.25;2.70;;;22.60;32.10;;;;;;4958850;29;20397;-72
2022/03/17 07:31:11;;;;;;;5.50;2.50;;;22.60;32.10;;;;;;4973963;28;20404;-72
2022/03/17 07:33:37;;;;;;;4.97;2.58;;;22.60;32.10;;;;;;4961577;28;20893;-72
2022/03/17 07:36:06;;;;;;;3.90;2.58;;;22.60;32.10;;;;;;4978259;28;20392;-71
2022/03/17 07:38:31;;;;;;;4.55;2.40;;;22.60;32.00;;;;;;4977755;28;20420;-71
2022/03/17 07:40:57;;;;;;;4.65;2.40;;;22.60;31.90;;;;;;4978026;28;20392;-71
2022/03/17 07:43:23;;;;;;;4.77;2.60;;;22.50;31.80;;;;;;4977871;28;20442;-71
2022/03/17 07:45:49;;;;;;;4.75;3.08;;;22.50;31.80;;;;;;4963352;28;20398;-71
2022/03/17 07:48:15;;;;;;;4.05;2.78;;;22.50;31.60;;;;;;4958554;29;20398;-71
2022/03/17 07:50:41;;;;;;;4.15;2.53;;;22.60;31.60;;;;;;4958756;28;20968;-71
2022/03/17 07:53:06;;;;;;;4.88;2.90;;;22.60;31.50;;;;;;4962171;28;20409;-72
2022/03/17 07:55:33;;;;;;;4.25;2.75;;;22.60;31.50;;;;;;4958865;28;20419;-71
2022/03/17 07:58:00;;;;;;;5.20;2.78;;;22.60;31.50;;;;;;4958619;29;20418;-72
2022/03/17 08:00:26;;;;;;;5.00;2.95;;;22.60;31.50;;;;;;4958332;28;20449;-71
2022/03/17 08:02:52;;;;;;;4.60;2.70;;;22.60;31.40;;;;;;4941492;29;20420;-71
2022/03/17 08:05:18;;;;;;;4.40;2.77;;;22.60;31.50;;;;;;4958428;29;20476;-71
2022/03/17 08:07:44;;;;;;;4.63;2.90;;;22.60;31.40;;;;;;4947314;28;20564;-71
2022/03/17 08:10:10;;;;;;;5.47;3.33;;;22.60;31.50;;;;;;4960216;28;20831;-72
2022/03/17 08:12:36;;;;;;;4.40;2.80;;;22.60;31.30;;;;;;4978092;28;20423;-72
2022/03/17 08:15:05;;;;;;;5.03;2.92;;;22.60;31.30;;;;;;4977797;28;20400;-71
2022/03/17 08:17:31;;;;;;;3.85;2.72;;;22.60;31.40;;;;;;4959801;28;20412;-71
2022/03/17 08:19:57;;;;;;;4.65;3.05;;;22.60;31.30;;;;;;4974907;28;20411;-71
2022/03/17 08:22:24;;;;;;;4.60;3.00;;;22.70;31.40;;;;;;4974608;28;20550;-71
2022/03/17 08:24:50;;;;;;;4.10;3.03;;;22.70;31.30;;;;;;4974708;28;20388;-71
2022/03/17 08:27:16;;;;;;;4.30;3.20;;;22.70;31.20;;;;;;4957505;28;20766;-71
2022/03/17 08:29:43;;;;;;;3.80;2.95;;;22.70;31.20;;;;;;4974709;28;20400;-72
2022/03/17 08:32:09;;;;;;;3.83;2.92;;;22.70;31.10;;;;;;4957083;28;20408;-71
2022/03/17 08:34:35;;;;;;;4.10;2.78;;;22.70;31.20;;;;;;4974078;28;20404;-71
2022/03/17 08:37:01;;;;;;;4.72;3.20;;;22.70;31.20;;;;;;4974235;28;20423;-71
2022/03/17 08:39:27;;;;;;;3.95;2.80;;;22.70;31.20;;;;;;4974390;28;20764;-71
2022/03/17 08:41:53;;;;;;;4.25;2.85;;;22.70;31.10;;;;;;4957549;28;20406;-71
2022/03/17 08:44:19;;;;;;;3.55;2.50;;;22.70;31.20;;;;;;4973962;28;20467;-71
2022/03/17 08:49:30;;;;;;;3.63;2.72;;;22.70;31.10;;;;;;4974625;28;20395;-71
2022/03/17 08:51:59;;;;;;;3.67;2.83;;;22.70;31.20;;;;;;4974163;28;20489;-71
2022/03/17 08:54:28;;;;;;;3.78;2.88;;;22.70;31.10;;;;;;4973765;28;20484;-72
2022/03/17 08:57:01;;;;;;;3.78;2.92;;;22.70;31.20;;;;;;4974040;28;20427;-71
2022/03/17 08:59:33;;;;;;;3.55;3.00;;;22.70;31.20;;;;;;4974132;28;20423;-70
2022/03/17 09:02:00;;;;;;;4.70;2.77;;;22.70;31.00;;;;;;4974355;28;20862;-71
2022/03/17 09:04:27;;;;;;;4.45;2.97;;;22.70;31.00;;;;;;4973701;28;20393;-72
2022/03/17 09:06:58;;;;;;;3.70;2.78;;;22.70;31.00;;;;;;4968487;28;20395;-72
2022/03/17 09:09:25;;;;;;;4.78;3.20;;;22.70;31.10;;;;;;4973892;28;20410;-73
2022/03/17 09:11:51;;;;;;;4.38;3.00;;;22.60;31.10;;;;;;4973649;28;20403;-73
2022/03/17 09:14:17;;;;;;;4.40;3.17;;;22.60;31.20;;;;;;4973752;28;20392;-73
2022/03/17 09:16:42;;;;;;;4.20;3.40;;;22.60;31.20;;;;;;4973371;28;20547;-72
2022/03/17 09:19:08;;;;;;;3.83;3.20;;;22.60;31.20;;;;;;4973440;28;20420;-73
2022/03/17 09:21:35;;;;;;;4.20;3.25;;;22.60;31.20;;;;;;4973720;28;20400;-73
2022/03/17 09:24:03;;;;;;;3.72;2.92;;;22.60;31.20;;;;;;4956361;28;20555;-73
2022/03/17 09:26:30;;;;;;;3.80;3.00;;;22.60;31.30;;;;;;4955719;28;20396;-73
2022/03/17 09:28:55;;;;;;;3.88;3.20;;;22.60;31.20;;;;;;4972645;28;20432;-72
2022/03/17 09:31:22;;;;;;;3.80;3.20;;;22.70;31.00;;;;;;4956470;28;20498;-73
2022/03/17 09:33:48;;;;;;;3.90;2.95;;;22.70;31.00;;;;;;4973813;28;20400;-72
2022/03/17 09:36:16;;;;;;;3.47;3.00;;;22.70;30.90;;;;;;4956558;28;20392;-73
2022/03/17 09:38:42;;;;;;;3.95;2.80;;;22.70;30.90;;;;;;4955946;28;20427;-72
2022/03/17 09:41:24;;;;;;;3.70;3.10;;;22.80;30.70;;;;;;4973075;28;20898;-73
2022/03/17 09:43:51;;;;;;;3.97;3.20;;;22.70;30.70;;;;;;4973465;28;20431;-72
2022/03/17 09:46:19;;;;;;;3.70;3.13;;;22.80;30.80;;;;;;4973080;28;20866;-72
2022/03/17 09:48:44;;;;;;;3.70;3.00;;;22.80;30.70;;;;;;4955555;28;20407;-71
2022/03/17 09:51:12;;;;;;;4.20;3.15;;;22.80;30.60;;;;;;4955349;28;20396;-72
2022/03/17 09:53:38;;;;;;;3.57;3.17;;;22.80;30.50;;;;;;4955959;28;20400;-73
2022/03/17 09:56:04;;;;;;;3.80;3.20;;;22.80;30.50;;;;;;4955394;28;20401;-72
2022/03/17 09:58:29;;;;;;;3.47;2.80;;;22.80;30.40;;;;;;4954739;28;20436;-73
2022/03/17 10:00:55;;;;;;;3.47;3.00;;;22.80;30.40;;;;;;4955184;28;20798;-72
2022/03/17 10:03:26;;;;;;;3.90;3.10;;;22.80;30.30;;;;;;4955377;28;20813;-72
2022/03/17 10:05:55;;;;;;;3.60;3.00;;;22.80;30.50;;;;;;4956466;28;20392;-74
2022/03/17 10:08:23;;;;;;;5.00;3.20;;;22.80;30.30;;;;;;4955976;28;20403;-73
2022/03/17 10:10:49;;;;;;;3.33;2.90;;;22.80;30.30;;;;;;4955833;28;20474;-73
2022/03/17 10:13:18;;;;;;;3.30;3.00;;;22.80;30.40;;;;;;4955551;28;20401;-73
2022/03/17 10:16:07;;;;;;;4.03;2.90;;;22.90;30.20;;;;;;4955587;28;20433;-73
2022/03/17 10:18:37;;;;;;;3.78;3.08;;;22.80;30.20;;;;;;4972207;28;20416;-73
2022/03/17 10:21:24;;;;;;;4.03;3.13;;;22.90;30.10;;;;;;4972396;28;20432;-72
2022/03/17 10:23:56;;;;;;;4.10;3.00;;;22.90;30.00;;;;;;4955250;28;20919;-72
2022/03/17 10:26:41;;;;;;;3.47;2.92;;;23.00;30.10;;;;;;4955110;28;20442;-72
2022/03/17 10:29:15;;;;;;;3.47;3.07;;;23.00;30.00;;;;;;4954404;28;20450;-72
2022/03/17 10:31:56;;;;;;;4.50;3.10;;;23.00;30.00;;;;;;4954438;28;20384;-72
2022/03/17 10:34:26;;;;;;;3.83;3.33;;;23.00;30.10;;;;;;4942359;29;20400;-73
2022/03/17 10:37:07;;;;;;;3.30;3.00;;;22.90;30.30;;;;;;4935527;29;20982;-72
2022/03/17 10:39:50;;;;;;;4.10;3.30;;;22.90;30.00;;;;;;4935320;29;20425;-73
2022/03/17 10:42:21;;;;;;;3.70;3.05;;;23.20;30.20;;;;;;4934894;29;20501;-72
2022/03/17 10:44:49;;;;;;;3.72;3.15;;;22.90;30.00;;;;;;4935207;29;20393;-73
2022/03/17 10:47:27;;;;;;;3.95;3.30;;;23.00;30.10;;;;;;4935854;29;20410;-72
2022/03/17 10:50:05;;;;;;;3.78;3.15;;;23.00;30.10;;;;;;4952983;29;20440;-73
2022/03/17 10:52:47;;;;;;;3.87;3.10;;;23.10;30.00;;;;;;4935064;29;20542;-74
2022/03/17 10:55:14;;;;;;;4.30;3.17;;;23.10;29.90;;;;;;4935689;29;20760;-73
2022/03/17 10:57:40;;;;;;;4.57;3.05;;;23.00;30.00;;;;;;4935826;29;20409;-72
2022/03/17 11:00:18;;;;;;;5.10;3.17;;;23.00;30.00;;;;;;4935489;29;20418;-73
2022/03/17 11:02:46;;;;;;;4.00;3.10;;;23.10;30.00;;;;;;4960760;28;20410;-72
2022/03/17 11:05:12;;;;;;;4.65;3.15;;;23.10;30.00;;;;;;4962486;28;20491;-72
2022/03/17 11:07:39;;;;;;;4.47;3.33;;;23.10;30.00;;;;;;4960778;28;20481;-72
2022/03/17 11:10:06;;;;;;;3.95;3.25;;;23.10;29.90;;;;;;4960297;28;20460;-72
2022/03/17 11:12:32;;;;;;;3.47;3.10;;;23.10;30.00;;;;;;4960829;28;20394;-73
2022/03/17 11:14:57;;;;;;;4.80;3.17;;;23.10;30.00;;;;;;4961615;28;20902;-72
2022/03/17 11:17:43;;;;;;;3.97;3.00;;;23.10;30.00;;;;;;4962724;28;20741;-72
2022/03/17 11:20:11;;;;;;;3.67;3.00;;;23.10;30.00;;;;;;4960590;28;20398;-72
2022/03/17 11:22:39;;;;;;;4.05;3.00;;;23.10;30.00;;;;;;4944139;28;20924;-72
2022/03/17 11:25:25;;;;;;;3.50;3.20;;;23.10;30.00;;;;;;4963172;28;20536;-72
2022/03/17 11:27:57;;;;;;;4.10;3.10;;;23.10;30.00;;;;;;4958309;28;20481;-72
2022/03/17 11:30:29;;;;;;;4.22;3.10;;;23.10;30.00;;;;;;4960789;28;20475;-72
2022/03/17 11:32:56;;;;;;;4.05;3.00;;;23.10;30.00;;;;;;4942136;28;20496;-73
2022/03/17 11:35:29;;;;;;;3.80;3.22;;;23.10;30.00;;;;;;4961094;28;20403;-72
2022/03/17 11:38:23;;;;;;;4.00;3.15;;;23.10;30.00;;;;;;4961973;28;20407;-72
2022/03/17 11:41:14;;;;;;;4.13;3.20;;;23.20;30.00;;;;;;4961309;28;20898;-73
2022/03/17 11:43:46;;;;;;;4.20;3.10;;;23.20;29.90;;;;;;4933242;29;20427;-72
2022/03/17 11:46:17;;;;;;;3.85;3.08;;;23.20;30.00;;;;;;4916687;28;20427;-71
2022/03/17 11:48:44;;;;;;;4.25;3.10;;;23.20;29.80;;;;;;4951404;28;20388;-71
2022/03/17 11:51:13;;;;;;;3.42;3.00;;;23.20;29.90;;;;;;4956118;28;20392;-72
2022/03/17 11:53:50;;;;;;;4.00;3.00;;;23.20;29.80;;;;;;4951365;28;20388;-72
2022/03/17 11:56:47;;;;;;;4.65;3.10;;;23.20;29.80;;;;;;4948632;28;20402;-72
2022/03/17 11:59:16;;;;;;;5.00;3.13;;;23.20;29.90;;;;;;4964804;28;20433;-73
2022/03/17 12:01:47;;;;;;;3.78;2.90;;;23.20;29.80;;;;;;4963618;28;20389;-73
2022/03/17 12:04:22;;;;;;;3.83;2.97;;;23.20;29.90;;;;;;4948148;28;20914;-71
2022/03/17 12:07:05;;;;;;;3.33;2.75;;;23.20;29.80;;;;;;4948416;28;20440;-72
2022/03/17 12:09:35;;;;;;;5.13;2.90;;;23.20;29.80;;;;;;4948255;28;20910;-72
2022/03/17 12:12:01;;;;;;;6.95;3.22;;;23.10;30.00;;;;;;4970216;28;20384;-73
2022/03/17 12:18:16;;;;;;;4.10;3.20;;;23.10;30.10;;;;;;5456426;23;20444;-70
2022/03/17 12:23:49;;;;;;;5.13;2.80;;;23.00;31.30;;;;;;5802649;23;20922;-73
2022/03/17 12:26:21;;;;;;;5.43;3.20;;;23.10;30.20;;;;;;4970530;28;20437;-73
2022/03/17 12:28:46;;;;;;;4.40;3.42;;;23.10;30.00;;;;;;4971238;28;20390;-74
2022/03/17 13:21:21;;;;;;;3.70;2.60;;;23.20;29.70;;;;;;4924921;29;20536;-71
2022/03/17 13:23:48;;;;;;;4.88;3.28;;;23.20;29.70;;;;;;4926600;29;20511;-72
2022/03/17 13:26:28;;;;;;;4.43;3.03;;;23.20;29.70;;;;;;4928104;29;20400;-72
2022/03/17 13:29:01;;;;;;;3.50;2.70;;;23.20;29.80;;;;;;4907938;29;20750;-69
2022/03/17 13:31:41;;;;;;;3.60;3.00;;;23.20;29.80;;;;;;4924834;29;20393;-72
2022/03/17 13:34:07;;;;;;;3.60;2.70;;;23.20;29.80;;;;;;4925221;29;20406;-69
2022/03/17 13:37:14;;;;;;;4.88;3.00;;;23.20;29.70;;;;;;4925741;29;20408;-70
2022/03/17 13:39:39;;;;;;;3.33;2.60;;;23.20;29.70;;;;;;4825584;29;20514;-70
2022/03/17 13:42:09;;;;;;;3.92;2.70;;;23.20;29.80;;;;;;4827634;29;20511;-71
2022/03/17 13:44:55;;;;;;;5.70;2.80;;;23.10;29.80;;;;;;4878268;29;20417;-70
2022/03/17 13:47:31;;;;;;;3.90;2.80;;;23.10;30.40;;;;;;4926289;29;20868;-70
2022/03/17 13:50:13;;;;;;;5.13;2.90;;;23.10;30.50;;;;;;4925393;29;20408;-72
2022/03/17 13:52:40;;;;;;;7.10;2.88;;;23.20;30.10;;;;;;4925451;29;20396;-72
2022/03/17 13:55:09;;;;;;;4.38;3.03;;;23.20;30.00;;;;;;4924389;29;20504;-72
2022/03/17 13:57:35;;;;;;;6.63;3.47;;;23.20;30.00;;;;;;4925633;29;20403;-71
2022/03/17 14:00:01;;;;;;;4.45;2.90;;;23.20;30.00;;;;;;4926499;29;21037;-70
2022/03/17 14:02:27;;;;;;;5.88;3.63;;;23.20;30.00;;;;;;4924529;29;20404;-72
2022/03/17 14:04:56;;;;;;;5.07;3.08;;;23.20;30.00;;;;;;4926448;29;20415;-72